Time;durP1;ratioP1;P1;durP2;ratioP2;P2;SDS_P1;SDS_P2;PMS_P1;PMS_P2;Temp;Humidity;BMP_temperature;BMP_pressure;BME280_temperature;BME280_humidity;BME280_pressure;Samples;Min_cycle;Max_cycle;Signal;HPM_P1;HPM_P2
2021/12/08 00:03:24;;;;;;;5.00;1.60;;;;;6.20;98629.00;;;;10476098;28;20209;-80
2021/12/08 00:08:29;;;;;;;5.80;2.10;;;;;6.20;98656.00;;;;10492271;28;20197;-80
2021/12/08 00:13:35;;;;;;;4.30;1.67;;;;;6.30;98656.00;;;;10486822;28;20205;-81
2021/12/08 00:18:45;;;;;;;6.83;1.67;;;;;6.30;98662.00;;;;10475971;28;20201;-81
2021/12/08 00:23:47;;;;;;;3.47;1.93;;;;;6.40;98668.00;;;;10494903;28;20209;-81
2021/12/08 00:28:49;;;;;;;5.03;2.20;;;;;6.40;98685.00;;;;10500271;28;20246;-81
2021/12/08 00:33:52;;;;;;;5.57;1.83;;;;;6.40;98689.00;;;;10471915;28;20224;-81
2021/12/08 00:38:54;;;;;;;7.53;2.37;;;;;6.50;98696.00;;;;10486550;28;20201;-80
2021/12/08 00:43:56;;;;;;;8.87;2.00;;;;;6.60;98701.00;;;;10528210;28;20265;-80
2021/12/08 00:48:58;;;;;;;5.87;2.40;;;;;6.60;98704.00;;;;10505854;28;20200;-79
2021/12/08 00:54:00;;;;;;;9.17;2.43;;;;;6.50;98712.00;;;;10474366;28;20208;-79
2021/12/08 00:59:03;;;;;;;10.53;2.20;;;;;6.50;98718.00;;;;10474065;28;20219;-79
2021/12/08 01:04:06;;;;;;;9.77;2.23;;;;;6.50;98719.00;;;;10532784;27;20219;-79
2021/12/08 01:09:10;;;;;;;7.23;2.60;;;;;6.60;98717.00;;;;10519109;28;20255;-79
2021/12/08 01:14:12;;;;;;;6.87;2.17;;;;;6.70;98725.00;;;;10476052;28;20247;-80
2021/12/08 01:19:14;;;;;;;4.53;2.00;;;;;6.70;98744.00;;;;10463998;28;20202;-79
2021/12/08 01:24:16;;;;;;;5.13;2.20;;;;;6.70;98745.00;;;;10463415;28;20562;-79
2021/12/08 01:29:18;;;;;;;9.57;2.10;;;;;6.60;98753.00;;;;10488781;28;20737;-79
2021/12/08 01:34:20;;;;;;;4.87;1.87;;;;;6.40;98770.00;;;;10522046;28;20224;-79
2021/12/08 01:39:22;;;;;;;13.23;2.07;;;;;6.30;98772.00;;;;10483715;28;20738;-79
2021/12/08 01:49:45;;;;;;;6.63;1.40;;;;;6.20;98797.00;;;;10502259;28;20691;-79
2021/12/08 01:54:47;;;;;;;6.57;1.33;;;;;6.10;98814.00;;;;10500431;28;20201;-79
2021/12/08 01:59:49;;;;;;;7.00;1.30;;;;;6.10;98813.00;;;;10489053;28;20848;-79
2021/12/08 02:04:52;;;;;;;6.83;1.50;;;;;6.20;98822.00;;;;10489827;28;20224;-79
2021/12/08 02:09:54;;;;;;;12.03;1.67;;;;;6.30;98816.00;;;;10461509;28;20189;-79
2021/12/08 02:14:58;;;;;;;10.77;2.33;;;;;6.40;98811.00;;;;10504699;28;20590;-79
2021/12/08 02:20:03;;;;;;;10.70;1.73;;;;;6.40;98811.00;;;;10479794;28;20196;-79
2021/12/08 02:25:08;;;;;;;7.70;1.63;;;;;6.50;98819.00;;;;10483000;28;20262;-79
2021/12/08 02:30:21;;;;;;;7.93;1.80;;;;;6.50;98838.00;;;;10487175;28;20262;-79
2021/12/08 02:51:25;;;;;;;4.73;0.90;;;;;5.90;98826.00;;;;10484272;28;20188;-79
2021/12/08 02:56:27;;;;;;;3.43;0.80;;;;;5.80;98829.00;;;;10473516;28;20219;-79
2021/12/08 03:01:31;;;;;;;5.30;1.43;;;;;5.70;98834.00;;;;10500457;28;20200;-79
2021/12/08 03:06:33;;;;;;;6.57;1.50;;;;;5.60;98835.00;;;;10512893;28;20224;-79
2021/12/08 03:11:35;;;;;;;3.80;1.13;;;;;5.60;98844.00;;;;10482817;28;20205;-78
2021/12/08 03:16:43;;;;;;;4.73;1.57;;;;;5.60;98858.00;;;;10482547;28;20200;-78
2021/12/08 03:21:45;;;;;;;7.20;1.80;;;;;5.60;98854.00;;;;10470574;28;20211;-78
2021/12/08 03:32:03;;;;;;;7.83;1.70;;;;;5.50;98840.00;;;;10499550;28;20729;-78
2021/12/08 03:37:07;;;;;;;10.67;1.93;;;;;5.40;98823.00;;;;10501330;28;20266;-78
2021/12/08 03:42:10;;;;;;;7.10;1.80;;;;;5.30;98807.00;;;;10547667;28;20229;-78
2021/12/08 03:47:16;;;;;;;8.83;2.20;;;;;5.30;98831.00;;;;10538281;27;20687;-78
2021/12/08 03:52:18;;;;;;;9.43;1.90;;;;;5.30;98828.00;;;;10495997;28;20250;-79
2021/12/08 03:57:20;;;;;;;11.10;2.27;;;;;5.20;98829.00;;;;10521368;28;20257;-78
2021/12/08 04:02:21;;;;;;;8.87;2.10;;;;;5.20;98835.00;;;;10469583;28;20231;-78
2021/12/08 04:07:25;;;;;;;8.57;1.77;;;;;5.20;98852.00;;;;10513239;28;20220;-78
2021/12/08 04:12:27;;;;;;;13.90;2.40;;;;;5.00;98840.00;;;;10510399;28;20197;-78
2021/12/08 04:17:37;;;;;;;12.03;2.10;;;;;5.00;98846.00;;;;10507731;28;20207;-78
2021/12/08 04:22:43;;;;;;;9.90;2.33;;;;;4.90;98851.00;;;;10475668;28;20680;-78
2021/12/08 04:27:47;;;;;;;14.93;2.17;;;;;4.80;98853.00;;;;10507890;28;20266;-78
2021/12/08 04:32:49;;;;;;;9.33;1.50;;;;;4.80;98853.00;;;;10530769;28;20223;-79
2021/12/08 04:37:57;;;;;;;7.97;1.83;;;;;4.70;98848.00;;;;10526225;28;20803;-78
2021/12/08 04:53:46;;;;;;;7.13;1.73;;;;;4.60;98865.00;;;;10504236;28;20201;-78
2021/12/08 05:04:36;;;;;;;8.57;1.93;;;;;4.50;98887.00;;;;10472180;28;20213;-78
2021/12/08 05:09:39;;;;;;;8.20;1.37;;;;;4.50;98910.00;;;;10504895;28;20208;-79
2021/12/08 05:14:59;;;;;;;13.83;2.00;;;;;4.60;98899.00;;;;10505564;28;20262;-78
2021/12/08 05:20:15;;;;;;;6.47;1.37;;;;;4.60;98910.00;;;;10437975;28;20240;-78
2021/12/08 05:25:21;;;;;;;6.47;1.30;;;;;4.60;98921.00;;;;10500639;28;20224;-78
2021/12/08 05:30:29;;;;;;;10.67;1.83;;;;;4.60;98921.00;;;;10485145;28;20231;-79
2021/12/08 05:35:31;;;;;;;4.70;1.43;;;;;4.50;98937.00;;;;10504310;28;20266;-79
2021/12/08 05:40:45;;;;;;;2.80;1.10;;;;;4.50;98932.00;;;;10477751;28;20216;-78
2021/12/08 05:45:48;;;;;;;9.93;1.60;;;;;4.40;98937.00;;;;10487616;28;20282;-78
2021/12/08 05:50:58;;;;;;;5.30;1.20;;;;;4.40;98940.00;;;;10494411;28;20205;-78
2021/12/08 05:56:00;;;;;;;3.27;1.17;;;;;4.40;98931.00;;;;10450899;28;20227;-78
2021/12/08 06:01:20;;;;;;;9.13;1.27;;;;;4.40;98911.00;;;;10506376;28;20193;-78
2021/12/08 06:06:24;;;;;;;6.30;1.50;;;;;4.40;98946.00;;;;10465744;28;20220;-78
2021/12/08 06:11:27;;;;;;;5.27;2.17;;;;;4.30;98937.00;;;;10548478;27;20199;-78
2021/12/08 06:16:31;;;;;;;8.47;1.40;;;;;4.30;98954.00;;;;10503926;28;20273;-78
2021/12/08 06:21:34;;;;;;;4.57;1.37;;;;;4.30;98955.00;;;;10504032;28;20280;-78
2021/12/08 06:26:36;;;;;;;5.93;1.33;;;;;4.50;98981.00;;;;10503453;28;20714;-78
2021/12/08 06:31:39;;;;;;;5.37;1.20;;;;;4.70;98984.00;;;;10482346;28;20633;-78
2021/12/08 06:36:58;;;;;;;5.67;1.63;;;;;4.80;98993.00;;;;10471430;28;20383;-78
2021/12/08 06:42:05;;;;;;;6.17;1.77;;;;;4.90;98990.00;;;;10487154;28;20209;-77
2021/12/08 06:47:11;;;;;;;6.97;1.30;;;;;5.00;98994.00;;;;10504946;28;20246;-78
2021/12/08 06:52:22;;;;;;;7.70;1.30;;;;;5.00;99015.00;;;;10490541;28;20319;-78
2021/12/08 06:57:31;;;;;;;6.57;1.40;;;;;5.10;99020.00;;;;10487975;28;20208;-78
2021/12/08 07:07:47;;;;;;;5.70;1.50;;;;;5.10;99043.00;;;;10502434;28;20223;-78
2021/12/08 07:13:13;;;;;;;8.03;2.60;;;;;5.20;99055.00;;;;10479216;28;20201;-78
2021/12/08 07:18:21;;;;;;;5.63;1.43;;;;;5.20;99050.00;;;;10480104;28;20251;-78
2021/12/08 07:23:36;;;;;;;3.50;1.30;;;;;5.10;99050.00;;;;10491300;28;21009;-78
2021/12/08 07:28:42;;;;;;;8.23;1.73;;;;;4.90;99042.00;;;;10463268;28;20247;-78
2021/12/08 07:33:44;;;;;;;3.97;1.27;;;;;4.70;99034.00;;;;10483034;28;20221;-78
2021/12/08 07:38:53;;;;;;;7.53;1.70;;;;;4.50;99044.00;;;;10456715;28;20218;-78
2021/12/08 07:43:57;;;;;;;9.47;1.70;;;;;4.60;99059.00;;;;10482484;28;20204;-78
2021/12/08 07:49:08;;;;;;;3.07;1.23;;;;;4.60;99049.00;;;;10502454;28;20760;-78
2021/12/08 07:54:12;;;;;;;2.67;1.03;;;;;4.70;99058.00;;;;10487336;28;20201;-78
2021/12/08 07:59:17;;;;;;;8.17;1.70;;;;;4.70;99054.00;;;;10470494;28;20235;-78
2021/12/08 08:04:24;;;;;;;6.90;1.60;;;;;4.70;99057.00;;;;10489443;28;20208;-78
2021/12/08 08:09:33;;;;;;;1.83;1.10;;;;;4.80;99069.00;;;;10505816;28;20235;-78
2021/12/08 08:14:41;;;;;;;4.03;1.17;;;;;4.80;99063.00;;;;10480503;28;20205;-78
2021/12/08 08:19:45;;;;;;;4.17;1.40;;;;;4.90;99071.00;;;;10489643;28;20204;-78
2021/12/08 08:24:49;;;;;;;7.27;1.53;;;;;5.00;99077.00;;;;10470954;28;20217;-78
2021/12/08 08:29:55;;;;;;;8.80;1.40;;;;;5.30;99078.00;;;;10500794;28;20533;-77
2021/12/08 08:35:07;;;;;;;4.57;1.53;;;;;5.40;99076.00;;;;10494456;28;20224;-78
2021/12/08 08:40:16;;;;;;;5.07;1.20;;;;;5.40;99070.00;;;;10515750;28;20205;-78
2021/12/08 08:45:38;;;;;;;4.77;1.87;;;;;5.40;99066.00;;;;10470432;28;20232;-77
2021/12/08 08:50:50;;;;;;;3.77;1.53;;;;;5.40;99071.00;;;;10485790;28;20247;-78
2021/12/08 08:55:58;;;;;;;6.20;1.97;;;;;5.60;99087.00;;;;10465840;28;20205;-78
2021/12/08 09:01:24;;;;;;;4.60;1.10;;;;;6.30;99094.00;;;;10449031;28;20189;-78
2021/12/08 09:06:35;;;;;;;8.33;1.83;;;;;6.20;99099.00;;;;10448682;28;20221;-78
2021/12/08 09:11:43;;;;;;;9.10;1.90;;;;;6.20;99115.00;;;;10502948;28;20201;-78
2021/12/08 09:16:51;;;;;;;5.43;1.23;;;;;6.20;99111.00;;;;10509177;28;20255;-78
2021/12/08 09:21:59;;;;;;;8.77;1.37;;;;;6.50;99101.00;;;;10488193;28;20702;-78
2021/12/08 09:27:29;;;;;;;3.70;1.60;;;;;7.00;99091.00;;;;10496362;28;20332;-78
2021/12/08 09:32:40;;;;;;;4.57;1.10;;;;;7.00;99076.00;;;;10519057;27;20341;-78
2021/12/08 09:37:53;;;;;;;3.30;1.33;;;;;7.30;99082.00;;;;10491916;28;20676;-77
2021/12/08 09:42:59;;;;;;;6.47;2.40;;;;;7.50;99098.00;;;;10503660;28;20645;-77
2021/12/08 09:48:04;;;;;;;5.97;1.37;;;;;7.40;99124.00;;;;10483584;28;20247;-78
2021/12/08 09:53:08;;;;;;;2.47;1.40;;;;;7.20;99124.00;;;;10508847;28;20198;-77
2021/12/08 09:58:10;;;;;;;7.80;1.97;;;;;7.00;99111.00;;;;10480552;28;20250;-77
2021/12/08 10:03:14;;;;;;;8.63;1.50;;;;;7.50;99123.00;;;;10483337;28;20215;-77
2021/12/08 10:08:16;;;;;;;6.00;1.40;;;;;7.90;99119.00;;;;10476484;27;20221;-78
2021/12/08 10:13:18;;;;;;;6.43;1.30;;;;;7.90;99120.00;;;;10498469;28;20273;-78
2021/12/08 10:18:20;;;;;;;4.33;1.10;;;;;7.60;99120.00;;;;10492529;28;20663;-77
2021/12/08 10:23:28;;;;;;;2.43;1.30;;;;;8.40;99113.00;;;;10478292;28;20185;-78
2021/12/08 10:28:39;;;;;;;3.00;1.23;;;;;8.70;99116.00;;;;10468436;28;20213;-78
2021/12/08 10:34:04;;;;;;;4.57;1.10;;;;;8.20;99118.00;;;;10469525;28;20270;-78
2021/12/08 10:39:23;;;;;;;5.40;1.40;;;;;8.50;99108.00;;;;10487031;28;20211;-78
2021/12/08 10:44:37;;;;;;;5.37;1.10;;;;;8.70;99104.00;;;;10497144;28;20203;-78
2021/12/08 10:54:47;;;;;;;4.40;1.40;;;;;8.90;99084.00;;;;10476154;28;20242;-78
2021/12/08 11:00:09;;;;;;;2.70;1.20;;;;;8.90;99095.00;;;;10529640;28;20548;-78
2021/12/08 11:05:23;;;;;;;5.90;1.40;;;;;8.40;99086.00;;;;10515060;28;20211;-78
2021/12/08 11:10:26;;;;;;;1.60;0.90;;;;;8.60;99087.00;;;;10489935;28;20204;-78
2021/12/08 11:15:29;;;;;;;6.27;1.57;;;;;8.70;99090.00;;;;10461676;28;20201;-78
2021/12/08 11:20:33;;;;;;;4.73;1.30;;;;;8.20;99102.00;;;;10481236;28;20205;-78
2021/12/08 11:25:44;;;;;;;5.37;1.37;;;;;7.90;99101.00;;;;10466384;28;20205;-78
2021/12/08 11:30:47;;;;;;;3.80;1.80;;;;;7.70;99114.00;;;;10506965;28;20190;-77
2021/12/08 11:36:06;;;;;;;6.20;1.63;;;;;7.80;99107.00;;;;10500017;28;20588;-77
2021/12/08 11:41:34;;;;;;;5.50;1.57;;;;;7.70;99101.00;;;;10497719;28;20215;-78
2021/12/08 11:46:40;;;;;;;6.57;1.83;;;;;7.80;99104.00;;;;10479339;28;20201;-78
2021/12/08 11:51:42;;;;;;;4.73;2.30;;;;;8.30;99116.00;;;;10471493;28;20193;-78
2021/12/08 11:56:44;;;;;;;6.47;2.33;;;;;8.80;99132.00;;;;10474415;28;20188;-78
2021/12/08 12:01:48;;;;;;;8.57;2.07;;;;;8.90;99130.00;;;;10538483;28;20220;-78
2021/12/08 12:06:50;;;;;;;7.40;2.20;;;;;8.90;99126.00;;;;10502141;28;20205;-78
2021/12/08 12:11:54;;;;;;;6.63;2.23;;;;;8.60;99149.00;;;;10494721;28;20204;-78
2021/12/08 12:16:55;;;;;;;8.03;2.33;;;;;8.50;99148.00;;;;10494232;28;20196;-78
2021/12/08 12:22:12;;;;;;;4.90;2.00;;;;;8.70;99151.00;;;;10534548;28;20192;-78
2021/12/08 12:27:20;;;;;;;4.20;1.90;;;;;8.40;99166.00;;;;10476336;28;20212;-78
2021/12/08 12:32:28;;;;;;;3.40;1.50;;;;;8.60;99167.00;;;;10509111;28;20244;-78
2021/12/08 12:37:34;;;;;;;3.17;1.53;;;;;8.60;99170.00;;;;10499476;28;20201;-78
2021/12/08 12:42:48;;;;;;;3.20;1.60;;;;;8.30;99184.00;;;;10494147;28;20280;-77
2021/12/08 12:48:11;;;;;;;3.57;1.73;;;;;7.90;99177.00;;;;10511839;28;20240;-78
2021/12/08 12:53:39;;;;;;;7.27;2.70;;;;;8.00;99182.00;;;;10514658;28;20196;-78
2021/12/08 12:58:49;;;;;;;5.40;1.47;;;;;8.30;99171.00;;;;10491928;28;20193;-78
2021/12/08 13:04:04;;;;;;;4.57;1.80;;;;;8.10;99187.00;;;;10445313;28;20252;-78
2021/12/08 13:09:09;;;;;;;8.67;1.93;;;;;7.90;99190.00;;;;10448024;28;20220;-78
2021/12/08 13:14:24;;;;;;;9.53;3.10;;;;;7.80;99197.00;;;;10449618;28;20220;-77
2021/12/08 13:19:45;;;;;;;5.20;2.10;;;;;7.70;99202.00;;;;10470121;28;20190;-78
2021/12/08 13:24:46;;;;;;;4.57;1.70;;;;;7.60;99206.00;;;;10440480;28;20207;-78
2021/12/08 13:30:11;;;;;;;5.83;1.70;;;;;7.70;99213.00;;;;10449984;28;20227;-78
2021/12/08 13:35:32;;;;;;;4.70;1.50;;;;;7.80;99210.00;;;;10491913;28;20250;-78
2021/12/08 13:40:50;;;;;;;6.80;1.63;;;;;8.10;99207.00;;;;10466071;28;20204;-78
2021/12/08 13:45:52;;;;;;;2.83;1.30;;;;;8.00;99216.00;;;;10449288;28;20213;-78
2021/12/08 13:51:18;;;;;;;2.60;1.50;;;;;7.70;99227.00;;;;10450945;28;20190;-77
2021/12/08 13:56:39;;;;;;;4.20;1.90;;;;;7.60;99234.00;;;;10434176;28;20639;-78
2021/12/08 14:01:41;;;;;;;2.80;1.20;;;;;7.30;99235.00;;;;10488023;28;20204;-78
2021/12/08 14:06:43;;;;;;;2.47;1.47;;;;;7.00;99230.00;;;;10507671;28;20572;-78
2021/12/08 14:11:50;;;;;;;9.50;2.27;;;;;6.80;99239.00;;;;10508140;28;20234;-77
2021/12/08 14:16:52;;;;;;;6.60;1.40;;;;;6.60;99233.00;;;;10490767;28;20190;-77
2021/12/08 14:22:00;;;;;;;3.20;1.40;;;;;6.50;99244.00;;;;10507876;28;20189;-78
2021/12/08 14:27:03;;;;;;;4.90;1.53;;;;;6.40;99257.00;;;;10506348;28;20215;-77
2021/12/08 14:32:05;;;;;;;3.73;1.80;;;;;6.30;99270.00;;;;10484848;28;20214;-78
2021/12/08 14:37:11;;;;;;;6.67;2.03;;;;;6.30;99278.00;;;;10449111;28;20272;-77
2021/12/08 14:42:32;;;;;;;4.73;1.97;;;;;6.30;99282.00;;;;10432116;28;20681;-77
2021/12/08 14:47:40;;;;;;;5.97;2.77;;;;;6.40;99285.00;;;;10488140;28;20579;-77
2021/12/08 14:52:43;;;;;;;8.67;2.53;;;;;6.40;99286.00;;;;10490027;28;20211;-77
2021/12/08 14:57:51;;;;;;;4.13;2.00;;;;;6.20;99304.00;;;;10541518;28;20185;-77
2021/12/08 15:03:08;;;;;;;3.43;2.13;;;;;6.10;99307.00;;;;10494316;28;20254;-77
2021/12/08 15:08:15;;;;;;;3.17;1.67;;;;;6.10;99318.00;;;;10519931;28;20253;-77
2021/12/08 15:13:22;;;;;;;5.27;2.60;;;;;6.10;99322.00;;;;10460456;28;20194;-77
2021/12/08 15:18:30;;;;;;;2.77;1.57;;;;;6.00;99325.00;;;;10518231;28;20300;-78
2021/12/08 15:23:48;;;;;;;5.23;2.13;;;;;6.00;99332.00;;;;10522606;28;20280;-78
2021/12/08 15:28:51;;;;;;;4.67;1.73;;;;;6.00;99326.00;;;;10505525;28;20584;-78
2021/12/08 15:33:53;;;;;;;5.40;1.63;;;;;6.00;99330.00;;;;10464050;28;20270;-77
2021/12/08 15:38:57;;;;;;;8.23;2.13;;;;;5.90;99326.00;;;;10470909;28;20279;-78
2021/12/08 15:44:19;;;;;;;6.23;2.03;;;;;5.70;99319.00;;;;10505420;28;20193;-78
2021/12/08 15:49:37;;;;;;;8.20;1.60;;;;;5.60;99321.00;;;;10495536;28;20227;-78
2021/12/08 15:54:41;;;;;;;3.17;1.30;;;;;5.50;99333.00;;;;10487694;28;20263;-78
2021/12/08 15:59:52;;;;;;;3.33;1.73;;;;;5.30;99334.00;;;;10487341;28;20551;-78
2021/12/08 16:05:05;;;;;;;3.80;1.50;;;;;5.20;99335.00;;;;10504415;28;20189;-77
2021/12/08 16:10:20;;;;;;;8.47;2.00;;;;;5.00;99334.00;;;;10494043;28;20235;-78
2021/12/08 16:15:22;;;;;;;4.33;1.50;;;;;4.90;99342.00;;;;10530357;28;20257;-77
2021/12/08 16:20:28;;;;;;;5.00;1.57;;;;;4.80;99347.00;;;;10537065;28;20241;-78
2021/12/08 16:25:30;;;;;;;5.50;1.90;;;;;4.80;99352.00;;;;10528886;28;20242;-77
2021/12/08 16:30:33;;;;;;;7.93;2.27;;;;;4.70;99354.00;;;;10552067;28;20209;-77
2021/12/08 16:35:36;;;;;;;10.80;2.00;;;;;4.60;99345.00;;;;10487502;28;20296;-78
2021/12/08 16:45:46;;;;;;;4.37;1.83;;;;;4.50;99368.00;;;;10452263;28;20280;-78
2021/12/08 16:50:49;;;;;;;4.93;2.00;;;;;4.40;99369.00;;;;10485526;28;20212;-78
2021/12/08 16:55:51;;;;;;;6.07;2.00;;;;;4.40;99367.00;;;;10510188;28;20288;-78
2021/12/08 17:00:55;;;;;;;4.60;2.03;;;;;4.30;99370.00;;;;10509383;28;20204;-78
2021/12/08 17:05:58;;;;;;;10.83;2.60;;;;;4.30;99380.00;;;;10501109;28;20189;-78
2021/12/08 17:11:03;;;;;;;6.63;2.37;;;;;4.20;99390.00;;;;10494530;28;20242;-78
2021/12/08 17:16:06;;;;;;;6.33;2.23;;;;;4.20;99384.00;;;;10493120;28;20185;-78
2021/12/08 17:21:08;;;;;;;7.03;2.50;;;;;4.20;99384.00;;;;10476068;28;20203;-78
2021/12/08 17:26:10;;;;;;;6.90;2.33;;;;;4.10;99383.00;;;;10511581;28;20701;-78
2021/12/08 17:31:13;;;;;;;5.63;3.20;;;;;4.10;99379.00;;;;10532523;28;20291;-77
2021/12/08 17:36:15;;;;;;;5.03;2.50;;;;;4.10;99384.00;;;;10534830;28;20212;-78
2021/12/08 17:41:18;;;;;;;3.97;2.37;;;;;4.00;99386.00;;;;10550814;28;20192;-78
2021/12/08 17:46:20;;;;;;;4.97;2.83;;;;;4.00;99398.00;;;;10550675;28;20204;-78
2021/12/08 17:51:22;;;;;;;10.13;2.80;;;;;3.90;99411.00;;;;10567305;28;20180;-78
2021/12/08 17:56:25;;;;;;;8.07;2.80;;;;;3.80;99409.00;;;;10550233;28;20195;-79
2021/12/08 18:01:27;;;;;;;8.00;3.13;;;;;3.80;99409.00;;;;10549641;28;20228;-78
2021/12/08 18:06:30;;;;;;;10.87;3.90;;;;;3.70;99410.00;;;;10549934;28;20658;-78
2021/12/08 18:11:32;;;;;;;9.40;3.23;;;;;3.70;99418.00;;;;10512894;28;20192;-77
2021/12/08 18:16:39;;;;;;;8.73;3.70;;;;;3.90;99413.00;;;;10491044;28;20181;-78
2021/12/08 18:21:42;;;;;;;8.37;3.03;;;;;4.00;99415.00;;;;10490582;28;20292;-78
2021/12/08 18:26:44;;;;;;;13.10;3.93;;;;;4.10;99411.00;;;;10474348;28;20219;-77
2021/12/08 18:31:46;;;;;;;17.90;6.57;;;;;4.10;99418.00;;;;10523038;28;20209;-78
2021/12/08 18:36:50;;;;;;;9.03;4.50;;;;;4.10;99433.00;;;;10506949;28;20276;-78
2021/12/08 18:41:55;;;;;;;10.40;5.73;;;;;4.10;99431.00;;;;10504988;28;20229;-78
2021/12/08 18:46:57;;;;;;;9.97;4.70;;;;;4.10;99438.00;;;;10557458;28;20242;-78
2021/12/08 18:51:59;;;;;;;17.00;8.43;;;;;4.00;99444.00;;;;10547706;28;20192;-77
2021/12/08 18:57:03;;;;;;;18.47;6.40;;;;;4.00;99453.00;;;;10516251;28;20279;-77
2021/12/08 19:02:05;;;;;;;12.17;4.37;;;;;4.10;99456.00;;;;10531776;28;20211;-77
2021/12/08 19:07:07;;;;;;;10.33;4.00;;;;;4.10;99452.00;;;;10531856;28;20255;-78
2021/12/08 19:12:09;;;;;;;7.83;4.10;;;;;4.10;99455.00;;;;10447520;28;20198;-78
2021/12/08 19:17:11;;;;;;;7.10;3.80;;;;;4.20;99468.00;;;;10448152;28;20193;-78
2021/12/08 19:22:13;;;;;;;7.63;3.93;;;;;4.20;99461.00;;;;10465420;28;20200;-78
2021/12/08 19:27:15;;;;;;;20.23;9.37;;;;;4.20;99478.00;;;;10430890;28;20314;-78
2021/12/08 19:32:19;;;;;;;9.30;3.37;;;;;4.20;99478.00;;;;10489062;28;20208;-78
2021/12/08 19:37:22;;;;;;;6.77;4.10;;;;;4.10;99476.00;;;;10511182;28;20194;-78
2021/12/08 19:42:24;;;;;;;13.73;5.97;;;;;4.10;99489.00;;;;10463797;28;20664;-78
2021/12/08 19:47:26;;;;;;;12.43;4.30;;;;;4.20;99501.00;;;;10454140;28;20292;-78
2021/12/08 19:52:28;;;;;;;13.30;5.83;;;;;4.20;99507.00;;;;10488243;28;20212;-77
2021/12/08 19:57:30;;;;;;;12.63;6.43;;;;;4.20;99502.00;;;;10471734;28;20189;-78
2021/12/08 20:02:32;;;;;;;12.73;6.57;;;;;4.10;99503.00;;;;10470929;28;20280;-78
2021/12/08 20:07:42;;;;;;;9.83;4.67;;;;;4.10;99507.00;;;;10470511;28;20209;-78
2021/12/08 20:12:46;;;;;;;7.03;3.60;;;;;4.00;99503.00;;;;10495818;28;20196;-78
2021/12/08 20:17:48;;;;;;;8.33;4.13;;;;;4.00;99509.00;;;;10496133;28;20671;-78
2021/12/08 20:22:50;;;;;;;4.87;3.07;;;;;4.00;99514.00;;;;10512203;28;20189;-78
2021/12/08 20:27:53;;;;;;;5.37;2.30;;;;;4.10;99526.00;;;;10511945;28;20232;-78
2021/12/08 20:32:55;;;;;;;11.10;2.57;;;;;4.10;99535.00;;;;10494664;28;20249;-78
2021/12/08 20:38:01;;;;;;;5.00;2.57;;;;;4.10;99545.00;;;;10487466;28;20229;-78
2021/12/08 20:43:04;;;;;;;5.10;2.27;;;;;4.00;99547.00;;;;10453350;28;20231;-78
2021/12/08 20:48:06;;;;;;;6.03;2.53;;;;;4.00;99528.00;;;;10469145;28;20300;-78
2021/12/08 20:53:09;;;;;;;5.60;2.67;;;;;4.10;99535.00;;;;10468827;28;20243;-78
2021/12/08 20:58:11;;;;;;;6.70;3.03;;;;;4.00;99537.00;;;;10451674;28;20299;-77
2021/12/08 21:03:15;;;;;;;4.43;2.30;;;;;4.00;99538.00;;;;10446452;28;20240;-78
2021/12/08 21:08:20;;;;;;;7.03;2.07;;;;;4.00;99546.00;;;;10461201;28;20213;-78
2021/12/08 21:13:21;;;;;;;3.33;2.13;;;;;4.00;99553.00;;;;10476728;28;20200;-78
2021/12/08 21:18:23;;;;;;;6.43;2.37;;;;;4.00;99553.00;;;;10510240;28;20242;-78
2021/12/08 21:23:26;;;;;;;4.07;2.17;;;;;4.00;99560.00;;;;10526442;28;20640;-78
2021/12/08 21:28:35;;;;;;;7.30;1.87;;;;;4.00;99562.00;;;;10491603;28;20248;-78
2021/12/08 21:33:53;;;;;;;4.33;2.27;;;;;4.00;99562.00;;;;10491358;28;20204;-78
2021/12/08 21:39:15;;;;;;;3.23;2.03;;;;;3.90;99568.00;;;;10478559;28;20194;-78
2021/12/08 21:44:17;;;;;;;4.57;2.43;;;;;3.90;99578.00;;;;10483906;28;20323;-78
2021/12/08 21:49:20;;;;;;;9.70;3.00;;;;;3.90;99573.00;;;;10483343;28;20317;-78
2021/12/08 21:54:24;;;;;;;5.63;2.40;;;;;3.90;99573.00;;;;10466336;28;20661;-77
2021/12/08 21:59:26;;;;;;;3.77;1.63;;;;;3.80;99576.00;;;;10478849;28;20284;-78
2021/12/08 22:04:28;;;;;;;7.23;3.33;;;;;3.90;99579.00;;;;10449419;28;20233;-78
2021/12/08 22:09:30;;;;;;;8.17;2.30;;;;;3.90;99581.00;;;;10469208;28;20224;-78
2021/12/08 22:14:32;;;;;;;2.30;1.53;;;;;3.90;99574.00;;;;10506910;28;20718;-78
2021/12/08 22:19:35;;;;;;;6.80;2.47;;;;;3.90;99589.00;;;;10474719;28;20220;-78
2021/12/08 22:24:37;;;;;;;4.50;2.00;;;;;3.80;99604.00;;;;10490048;28;20713;-78
2021/12/08 22:29:39;;;;;;;6.90;2.47;;;;;3.80;99625.00;;;;10507154;28;20771;-77
2021/12/08 22:34:41;;;;;;;7.13;2.33;;;;;3.80;99616.00;;;;10489980;28;20290;-77
2021/12/08 22:39:44;;;;;;;5.20;1.90;;;;;3.80;99623.00;;;;10495186;28;20192;-78
2021/12/08 22:44:46;;;;;;;6.00;2.40;;;;;3.70;99631.00;;;;10531628;28;20212;-77
2021/12/08 22:49:49;;;;;;;7.87;2.83;;;;;3.60;99630.00;;;;10531813;28;20725;-77
2021/12/08 22:54:52;;;;;;;5.70;2.30;;;;;3.40;99641.00;;;;10514895;28;20192;-77
2021/12/08 22:59:54;;;;;;;8.53;2.57;;;;;3.20;99650.00;;;;10547803;28;20267;-78
2021/12/08 23:04:55;;;;;;;8.13;3.63;;;;;3.00;99643.00;;;;10478488;28;20193;-78
2021/12/08 23:09:57;;;;;;;6.33;2.27;;;;;3.00;99647.00;;;;10529872;28;20247;-78
2021/12/08 23:14:59;;;;;;;7.33;2.50;;;;;2.90;99640.00;;;;10531642;28;20187;-78
2021/12/08 23:20:04;;;;;;;7.00;2.60;;;;;2.80;99650.00;;;;10535026;28;20195;-78
2021/12/08 23:25:08;;;;;;;6.90;3.10;;;;;2.80;99655.00;;;;10556887;28;20223;-78
2021/12/08 23:30:10;;;;;;;7.93;3.13;;;;;2.90;99662.00;;;;10538154;28;20248;-78
2021/12/08 23:40:24;;;;;;;4.10;2.03;;;;;3.00;99668.00;;;;10503289;28;20209;-78
2021/12/08 23:45:27;;;;;;;5.70;2.97;;;;;3.00;99682.00;;;;10455740;28;20221;-78
2021/12/08 23:50:30;;;;;;;5.80;3.10;;;;;2.90;99681.00;;;;10455070;28;20267;-78
2021/12/08 23:55:34;;;;;;;6.07;3.10;;;;;2.80;99687.00;;;;10456066;28;20564;-78
